sensor_id;sensor_type;location;lat;lon;timestamp;noise_LAeq;noise_LA_min;noise_LA_max;noise_LA01;noise_LA95
66450;Laerm;56829;52.274;4.770;2022-12-22T00:00:11;51.51;34.16;65.64;;
66450;Laerm;56829;52.274;4.770;2022-12-22T00:00:40;41.98;34.63;54.54;;
66450;Laerm;56829;52.274;4.770;2022-12-22T00:01:10;37.31;34.45;43.62;;
66450;Laerm;56829;52.274;4.770;2022-12-22T00:01:39;35.97;33.35;45.75;;
66450;Laerm;56829;52.274;4.770;2022-12-22T00:02:11;45.61;34.46;56.14;;
66450;Laerm;56829;52.274;4.770;2022-12-22T00:02:41;52.73;37.34;79.10;;
66450;Laerm;56829;52.274;4.770;2022-12-22T00:03:11;39.78;35.26;52.00;;
66450;Laerm;56829;52.274;4.770;2022-12-22T00:03:40;37.39;33.89;45.26;;
66450;Laerm;56829;52.274;4.770;2022-12-22T00:04:09;35.85;33.96;43.20;;
66450;Laerm;56829;52.274;4.770;2022-12-22T00:04:40;40.65;33.60;50.73;;
66450;Laerm;56829;52.274;4.770;2022-12-22T00:05:20;46.44;37.77;57.04;;
66450;Laerm;56829;52.274;4.770;2022-12-22T00:05:49;52.29;35.88;64.95;;
66450;Laerm;56829;52.274;4.770;2022-12-22T00:06:18;36.09;33.42;42.02;;
66450;Laerm;56829;52.274;4.770;2022-12-22T00:06:46;36.33;33.52;50.90;;
66450;Laerm;56829;52.274;4.770;2022-12-22T00:07:15;35.44;32.73;42.75;;
66450;Laerm;56829;52.274;4.770;2022-12-22T00:07:44;35.46;32.95;43.94;;
66450;Laerm;56829;52.274;4.770;2022-12-22T00:08:13;51.25;33.79;64.20;;
66450;Laerm;56829;52.274;4.770;2022-12-22T00:08:41;43.99;35.03;57.34;;
66450;Laerm;56829;52.274;4.770;2022-12-22T00:09:10;37.92;33.30;46.57;;
66450;Laerm;56829;52.274;4.770;2022-12-22T00:09:39;35.67;33.12;46.81;;
66450;Laerm;56829;52.274;4.770;2022-12-22T00:10:08;36.25;33.73;47.91;;
66450;Laerm;56829;52.274;4.770;2022-12-22T00:10:37;35.31;33.19;42.50;;
66450;Laerm;56829;52.274;4.770;2022-12-22T00:11:09;35.87;33.42;52.00;;
66450;Laerm;56829;52.274;4.770;2022-12-22T00:11:38;35.97;33.33;42.38;;
66450;Laerm;56829;52.274;4.770;2022-12-22T00:12:11;35.55;33.06;43.27;;
66450;Laerm;56829;52.274;4.770;2022-12-22T00:12:40;35.74;32.70;49.37;;
66450;Laerm;56829;52.274;4.770;2022-12-22T00:13:12;35.52;32.75;46.36;;
66450;Laerm;56829;52.274;4.770;2022-12-22T00:13:42;46.16;33.21;58.25;;
66450;Laerm;56829;52.274;4.770;2022-12-22T00:14:12;58.90;40.69;77.02;;
66450;Laerm;56829;52.274;4.770;2022-12-22T00:14:41;45.26;37.78;55.41;;
66450;Laerm;56829;52.274;4.770;2022-12-22T00:15:14;40.54;33.79;49.42;;
66450;Laerm;56829;52.274;4.770;2022-12-22T00:15:43;40.98;33.88;49.68;;
66450;Laerm;56829;52.274;4.770;2022-12-22T00:16:12;39.15;34.24;48.09;;
66450;Laerm;56829;52.274;4.770;2022-12-22T00:16:41;35.35;32.92;42.80;;
66450;Laerm;56829;52.274;4.770;2022-12-22T00:17:13;35.29;32.95;41.06;;
66450;Laerm;56829;52.274;4.770;2022-12-22T00:17:44;35.29;33.03;42.43;;
66450;Laerm;56829;52.274;4.770;2022-12-22T00:18:13;36.06;32.97;41.30;;
66450;Laerm;56829;52.274;4.770;2022-12-22T00:18:43;36.25;32.38;51.66;;
66450;Laerm;56829;52.274;4.770;2022-12-22T00:19:12;34.49;32.33;44.08;;
66450;Laerm;56829;52.274;4.770;2022-12-22T00:19:41;34.78;32.21;47.62;;
66450;Laerm;56829;52.274;4.770;2022-12-22T00:20:14;34.49;32.08;46.43;;
66450;Laerm;56829;52.274;4.770;2022-12-22T00:20:43;36.08;31.80;50.30;;
66450;Laerm;56829;52.274;4.770;2022-12-22T00:21:12;34.24;31.99;43.22;;
66450;Laerm;56829;52.274;4.770;2022-12-22T00:21:41;34.50;32.31;41.00;;
66450;Laerm;56829;52.274;4.770;2022-12-22T00:22:12;34.12;31.71;45.58;;
66450;Laerm;56829;52.274;4.770;2022-12-22T00:22:41;49.64;32.22;63.31;;
66450;Laerm;56829;52.274;4.770;2022-12-22T00:23:09;44.65;33.88;55.47;;
66450;Laerm;56829;52.274;4.770;2022-12-22T00:23:38;36.78;33.21;51.62;;
66450;Laerm;56829;52.274;4.770;2022-12-22T00:24:07;35.61;32.98;41.35;;
66450;Laerm;56829;52.274;4.770;2022-12-22T00:24:36;34.33;31.81;41.71;;
66450;Laerm;56829;52.274;4.770;2022-12-22T00:25:05;34.42;32.23;42.60;;
66450;Laerm;56829;52.274;4.770;2022-12-22T00:25:35;34.09;31.92;46.97;;
66450;Laerm;56829;52.274;4.770;2022-12-22T00:26:03;33.60;31.49;43.87;;
66450;Laerm;56829;52.274;4.770;2022-12-22T00:26:33;34.02;31.38;47.64;;
66450;Laerm;56829;52.274;4.770;2022-12-22T00:27:02;34.56;31.77;53.18;;
66450;Laerm;56829;52.274;4.770;2022-12-22T00:27:31;36.08;32.02;45.01;;
66450;Laerm;56829;52.274;4.770;2022-12-22T00:28:00;36.25;32.14;46.98;;
66450;Laerm;56829;52.274;4.770;2022-12-22T00:28:29;34.07;31.55;49.38;;
66450;Laerm;56829;52.274;4.770;2022-12-22T00:28:58;33.88;31.47;41.62;;
66450;Laerm;56829;52.274;4.770;2022-12-22T00:29:30;34.99;31.64;52.67;;
66450;Laerm;56829;52.274;4.770;2022-12-22T00:30:02;36.06;32.33;52.27;;
66450;Laerm;56829;52.274;4.770;2022-12-22T00:30:31;34.73;32.00;44.70;;
66450;Laerm;56829;52.274;4.770;2022-12-22T00:31:00;34.29;32.26;45.77;;
66450;Laerm;56829;52.274;4.770;2022-12-22T00:31:29;34.34;31.99;41.09;;
66450;Laerm;56829;52.274;4.770;2022-12-22T00:31:58;33.97;31.81;43.04;;
66450;Laerm;56829;52.274;4.770;2022-12-22T00:32:31;34.27;32.01;45.91;;
66450;Laerm;56829;52.274;4.770;2022-12-22T00:33:00;35.24;32.26;41.79;;
66450;Laerm;56829;52.274;4.770;2022-12-22T00:33:30;34.83;32.56;42.78;;
66450;Laerm;56829;52.274;4.770;2022-12-22T00:34:00;35.01;32.83;42.65;;
66450;Laerm;56829;52.274;4.770;2022-12-22T00:34:28;35.64;32.80;45.99;;
66450;Laerm;56829;52.274;4.770;2022-12-22T00:34:57;34.22;32.33;41.34;;
66450;Laerm;56829;52.274;4.770;2022-12-22T00:35:27;34.47;31.83;42.05;;
66450;Laerm;56829;52.274;4.770;2022-12-22T00:35:56;35.59;33.10;45.10;;
66450;Laerm;56829;52.274;4.770;2022-12-22T00:36:25;34.38;31.87;43.98;;
66450;Laerm;56829;52.274;4.770;2022-12-22T00:36:54;34.73;31.62;49.53;;
66450;Laerm;56829;52.274;4.770;2022-12-22T00:37:27;34.40;32.03;43.82;;
66450;Laerm;56829;52.274;4.770;2022-12-22T00:37:56;34.32;31.90;47.37;;
66450;Laerm;56829;52.274;4.770;2022-12-22T00:38:26;34.92;31.87;42.34;;
66450;Laerm;56829;52.274;4.770;2022-12-22T00:38:55;34.41;31.51;45.40;;
66450;Laerm;56829;52.274;4.770;2022-12-22T00:39:23;33.65;31.15;42.54;;
66450;Laerm;56829;52.274;4.770;2022-12-22T00:39:52;35.52;31.85;49.59;;
66450;Laerm;56829;52.274;4.770;2022-12-22T00:40:22;34.25;32.08;41.17;;
66450;Laerm;56829;52.274;4.770;2022-12-22T00:40:52;33.91;31.64;38.69;;
66450;Laerm;56829;52.274;4.770;2022-12-22T00:41:21;34.36;31.47;49.67;;
66450;Laerm;56829;52.274;4.770;2022-12-22T00:41:49;33.89;31.20;40.92;;
66450;Laerm;56829;52.274;4.770;2022-12-22T00:42:18;34.33;31.97;44.24;;
66450;Laerm;56829;52.274;4.770;2022-12-22T00:42:47;34.45;31.68;42.44;;
66450;Laerm;56829;52.274;4.770;2022-12-22T00:43:16;41.60;34.56;51.99;;
66450;Laerm;56829;52.274;4.770;2022-12-22T00:43:44;52.01;37.25;63.31;;
66450;Laerm;56829;52.274;4.770;2022-12-22T00:44:13;51.09;33.35;63.34;;
66450;Laerm;56829;52.274;4.770;2022-12-22T00:44:42;33.57;31.22;42.86;;
66450;Laerm;56829;52.274;4.770;2022-12-22T00:45:10;33.66;31.31;42.10;;
66450;Laerm;56829;52.274;4.770;2022-12-22T00:45:39;33.68;31.55;39.19;;
66450;Laerm;56829;52.274;4.770;2022-12-22T00:46:08;33.48;31.34;47.37;;
66450;Laerm;56829;52.274;4.770;2022-12-22T00:46:39;34.25;31.70;46.40;;
66450;Laerm;56829;52.274;4.770;2022-12-22T00:47:18;33.76;31.67;41.06;;
66450;Laerm;56829;52.274;4.770;2022-12-22T00:47:51;34.11;31.67;45.74;;
66450;Laerm;56829;52.274;4.770;2022-12-22T00:48:22;35.11;32.05;42.33;;
66450;Laerm;56829;52.274;4.770;2022-12-22T00:48:52;39.55;31.72;59.15;;
66450;Laerm;56829;52.274;4.770;2022-12-22T00:49:22;33.76;30.89;46.74;;
66450;Laerm;56829;52.274;4.770;2022-12-22T00:49:52;33.89;31.26;40.30;;
66450;Laerm;56829;52.274;4.770;2022-12-22T00:50:22;33.62;31.27;44.28;;
66450;Laerm;56829;52.274;4.770;2022-12-22T00:50:54;34.30;31.68;48.67;;
66450;Laerm;56829;52.274;4.770;2022-12-22T00:51:23;34.35;31.70;51.37;;
66450;Laerm;56829;52.274;4.770;2022-12-22T00:51:52;50.83;35.42;63.08;;
66450;Laerm;56829;52.274;4.770;2022-12-22T00:52:21;36.87;33.38;43.06;;
66450;Laerm;56829;52.274;4.770;2022-12-22T00:52:51;35.13;32.78;40.02;;
66450;Laerm;56829;52.274;4.770;2022-12-22T00:53:19;34.01;31.90;39.98;;
66450;Laerm;56829;52.274;4.770;2022-12-22T00:53:49;33.51;31.50;39.28;;
66450;Laerm;56829;52.274;4.770;2022-12-22T00:54:18;34.95;31.82;40.86;;
66450;Laerm;56829;52.274;4.770;2022-12-22T00:54:48;35.49;32.30;40.47;;
66450;Laerm;56829;52.274;4.770;2022-12-22T00:55:21;33.99;31.70;39.41;;
66450;Laerm;56829;52.274;4.770;2022-12-22T00:55:53;34.73;32.00;38.89;;
66450;Laerm;56829;52.274;4.770;2022-12-22T00:56:22;33.84;31.84;38.08;;
66450;Laerm;56829;52.274;4.770;2022-12-22T00:56:51;33.74;31.55;39.78;;
66450;Laerm;56829;52.274;4.770;2022-12-22T00:57:20;33.64;31.75;40.00;;
66450;Laerm;56829;52.274;4.770;2022-12-22T00:57:50;33.82;30.87;40.69;;
66450;Laerm;56829;52.274;4.770;2022-12-22T00:58:19;33.49;31.21;49.29;;
66450;Laerm;56829;52.274;4.770;2022-12-22T00:58:49;33.43;31.16;40.40;;
66450;Laerm;56829;52.274;4.770;2022-12-22T00:59:19;33.74;31.75;37.78;;
66450;Laerm;56829;52.274;4.770;2022-12-22T00:59:48;32.99;31.08;37.95;;
66450;Laerm;56829;52.274;4.770;2022-12-22T01:00:18;33.81;31.25;47.18;;
66450;Laerm;56829;52.274;4.770;2022-12-22T01:00:47;33.53;30.93;40.53;;
66450;Laerm;56829;52.274;4.770;2022-12-22T01:01:15;33.83;31.17;47.89;;
66450;Laerm;56829;52.274;4.770;2022-12-22T01:01:44;33.52;30.94;43.49;;
66450;Laerm;56829;52.274;4.770;2022-12-22T01:02:12;33.73;30.89;44.23;;
66450;Laerm;56829;52.274;4.770;2022-12-22T01:02:41;33.00;30.51;41.52;;
66450;Laerm;56829;52.274;4.770;2022-12-22T01:03:10;32.67;30.46;43.55;;
66450;Laerm;56829;52.274;4.770;2022-12-22T01:03:39;32.76;30.93;40.31;;
66450;Laerm;56829;52.274;4.770;2022-12-22T01:04:09;33.46;31.27;40.49;;
66450;Laerm;56829;52.274;4.770;2022-12-22T01:04:37;33.38;31.53;43.51;;
66450;Laerm;56829;52.274;4.770;2022-12-22T01:05:06;34.17;31.13;39.98;;
66450;Laerm;56829;52.274;4.770;2022-12-22T01:05:35;32.95;31.07;39.61;;
66450;Laerm;56829;52.274;4.770;2022-12-22T01:06:07;33.57;30.87;49.20;;
66450;Laerm;56829;52.274;4.770;2022-12-22T01:06:37;32.86;31.24;39.14;;
66450;Laerm;56829;52.274;4.770;2022-12-22T01:07:05;33.06;31.26;39.81;;
66450;Laerm;56829;52.274;4.770;2022-12-22T01:07:37;33.80;31.01;42.46;;
66450;Laerm;56829;52.274;4.770;2022-12-22T01:08:06;33.32;30.84;38.24;;
66450;Laerm;56829;52.274;4.770;2022-12-22T01:08:36;33.70;31.03;40.11;;
66450;Laerm;56829;52.274;4.770;2022-12-22T01:09:05;33.69;31.37;44.69;;
66450;Laerm;56829;52.274;4.770;2022-12-22T01:09:34;32.73;30.37;42.18;;
66450;Laerm;56829;52.274;4.770;2022-12-22T01:10:03;32.96;30.85;45.89;;
66450;Laerm;56829;52.274;4.770;2022-12-22T01:10:32;33.47;31.09;41.80;;
66450;Laerm;56829;52.274;4.770;2022-12-22T01:11:00;33.36;31.51;41.43;;
66450;Laerm;56829;52.274;4.770;2022-12-22T01:11:30;33.12;30.64;42.92;;
66450;Laerm;56829;52.274;4.770;2022-12-22T01:11:59;33.50;31.08;45.64;;
66450;Laerm;56829;52.274;4.770;2022-12-22T01:12:28;33.18;30.96;44.40;;
66450;Laerm;56829;52.274;4.770;2022-12-22T01:12:58;33.01;31.15;45.45;;
66450;Laerm;56829;52.274;4.770;2022-12-22T01:13:27;32.80;30.54;39.87;;
66450;Laerm;56829;52.274;4.770;2022-12-22T01:13:56;33.43;31.18;44.73;;
66450;Laerm;56829;52.274;4.770;2022-12-22T01:14:24;33.28;31.32;41.37;;
66450;Laerm;56829;52.274;4.770;2022-12-22T01:14:53;32.74;30.88;42.93;;
66450;Laerm;56829;52.274;4.770;2022-12-22T01:15:22;33.13;30.72;41.07;;
66450;Laerm;56829;52.274;4.770;2022-12-22T01:15:52;33.20;31.27;42.48;;
66450;Laerm;56829;52.274;4.770;2022-12-22T01:16:20;52.90;31.85;66.76;;
66450;Laerm;56829;52.274;4.770;2022-12-22T01:16:49;46.63;33.55;60.25;;
66450;Laerm;56829;52.274;4.770;2022-12-22T01:17:18;36.00;32.66;43.87;;
66450;Laerm;56829;52.274;4.770;2022-12-22T01:17:46;34.27;31.41;44.77;;
66450;Laerm;56829;52.274;4.770;2022-12-22T01:18:15;33.50;31.67;42.97;;
66450;Laerm;56829;52.274;4.770;2022-12-22T01:18:44;33.28;31.34;46.33;;
66450;Laerm;56829;52.274;4.770;2022-12-22T01:19:13;32.79;30.92;40.10;;
66450;Laerm;56829;52.274;4.770;2022-12-22T01:19:41;32.97;31.16;46.48;;
66450;Laerm;56829;52.274;4.770;2022-12-22T01:20:10;33.60;31.53;40.50;;
66450;Laerm;56829;52.274;4.770;2022-12-22T01:20:39;34.09;31.82;41.67;;
66450;Laerm;56829;52.274;4.770;2022-12-22T01:21:08;33.54;31.44;38.16;;
66450;Laerm;56829;52.274;4.770;2022-12-22T01:21:37;33.23;31.43;41.02;;
66450;Laerm;56829;52.274;4.770;2022-12-22T01:22:08;33.55;31.23;40.05;;
66450;Laerm;56829;52.274;4.770;2022-12-22T01:22:38;33.56;31.24;44.43;;
66450;Laerm;56829;52.274;4.770;2022-12-22T01:23:08;33.57;31.26;44.71;;
66450;Laerm;56829;52.274;4.770;2022-12-22T01:23:38;33.04;31.14;39.05;;
66450;Laerm;56829;52.274;4.770;2022-12-22T01:24:09;33.08;31.30;40.64;;
66450;Laerm;56829;52.274;4.770;2022-12-22T01:24:38;32.81;30.69;43.46;;
66450;Laerm;56829;52.274;4.770;2022-12-22T01:25:10;33.15;30.88;42.49;;
66450;Laerm;56829;52.274;4.770;2022-12-22T01:25:39;33.43;31.07;46.92;;
66450;Laerm;56829;52.274;4.770;2022-12-22T01:26:11;33.31;31.27;38.03;;
66450;Laerm;56829;52.274;4.770;2022-12-22T01:26:40;33.31;31.47;40.25;;
66450;Laerm;56829;52.274;4.770;2022-12-22T01:27:08;34.18;32.08;43.12;;
66450;Laerm;56829;52.274;4.770;2022-12-22T01:27:37;33.81;32.12;47.00;;
66450;Laerm;56829;52.274;4.770;2022-12-22T01:28:09;33.60;31.92;38.91;;
66450;Laerm;56829;52.274;4.770;2022-12-22T01:28:40;34.86;32.46;41.23;;
66450;Laerm;56829;52.274;4.770;2022-12-22T01:29:09;33.97;32.24;43.22;;
66450;Laerm;56829;52.274;4.770;2022-12-22T01:29:38;33.01;30.79;37.04;;
66450;Laerm;56829;52.274;4.770;2022-12-22T01:30:06;33.16;30.75;40.04;;
66450;Laerm;56829;52.274;4.770;2022-12-22T01:30:35;33.35;31.44;40.08;;
66450;Laerm;56829;52.274;4.770;2022-12-22T01:31:17;33.29;31.08;35.90;;
66450;Laerm;56829;52.274;4.770;2022-12-22T01:31:48;33.04;30.75;42.09;;
66450;Laerm;56829;52.274;4.770;2022-12-22T01:32:17;32.93;30.71;46.92;;
66450;Laerm;56829;52.274;4.770;2022-12-22T01:32:45;33.33;31.13;46.25;;
66450;Laerm;56829;52.274;4.770;2022-12-22T01:33:14;33.41;31.20;43.83;;
66450;Laerm;56829;52.274;4.770;2022-12-22T01:33:43;33.51;31.55;46.39;;
66450;Laerm;56829;52.274;4.770;2022-12-22T01:34:12;53.71;31.59;66.38;;
66450;Laerm;56829;52.274;4.770;2022-12-22T01:34:41;38.12;33.52;47.00;;
66450;Laerm;56829;52.274;4.770;2022-12-22T01:35:16;36.08;32.36;45.10;;
66450;Laerm;56829;52.274;4.770;2022-12-22T01:35:45;33.92;32.13;39.28;;
66450;Laerm;56829;52.274;4.770;2022-12-22T01:36:15;33.92;31.79;46.58;;
66450;Laerm;56829;52.274;4.770;2022-12-22T01:36:44;33.55;31.32;38.80;;
66450;Laerm;56829;52.274;4.770;2022-12-22T01:37:13;34.45;31.28;50.29;;
66450;Laerm;56829;52.274;4.770;2022-12-22T01:37:42;34.07;31.57;48.40;;
66450;Laerm;56829;52.274;4.770;2022-12-22T01:38:11;33.96;31.33;53.32;;
66450;Laerm;56829;52.274;4.770;2022-12-22T01:38:40;34.37;32.22;43.31;;
66450;Laerm;56829;52.274;4.770;2022-12-22T01:39:08;33.90;30.97;44.97;;
66450;Laerm;56829;52.274;4.770;2022-12-22T01:39:37;33.99;31.87;38.35;;
66450;Laerm;56829;52.274;4.770;2022-12-22T01:40:08;33.40;31.65;42.10;;
66450;Laerm;56829;52.274;4.770;2022-12-22T01:40:39;33.76;31.60;48.61;;
66450;Laerm;56829;52.274;4.770;2022-12-22T01:41:09;40.70;32.20;46.12;;
66450;Laerm;56829;52.274;4.770;2022-12-22T01:41:39;55.54;36.07;68.92;;
66450;Laerm;56829;52.274;4.770;2022-12-22T01:42:09;42.90;31.22;55.00;;
66450;Laerm;56829;52.274;4.770;2022-12-22T01:42:39;33.93;31.65;38.23;;
66450;Laerm;56829;52.274;4.770;2022-12-22T01:43:18;51.18;32.66;64.20;;
66450;Laerm;56829;52.274;4.770;2022-12-22T01:43:47;41.07;32.20;54.89;;
66450;Laerm;56829;52.274;4.770;2022-12-22T01:44:16;34.65;32.18;46.23;;
66450;Laerm;56829;52.274;4.770;2022-12-22T01:44:45;34.07;31.28;41.37;;
66450;Laerm;56829;52.274;4.770;2022-12-22T01:45:42;32.70;31.06;41.05;;
66450;Laerm;56829;52.274;4.770;2022-12-22T01:46:30;32.65;30.68;41.42;;
66450;Laerm;56829;52.274;4.770;2022-12-22T01:47:41;32.91;30.70;43.76;;
66450;Laerm;56829;52.274;4.770;2022-12-22T01:47:50;33.64;31.47;38.41;;
66450;Laerm;56829;52.274;4.770;2022-12-22T01:48:20;33.27;30.96;41.73;;
66450;Laerm;56829;52.274;4.770;2022-12-22T01:48:50;35.71;32.33;44.72;;
66450;Laerm;56829;52.274;4.770;2022-12-22T01:49:27;36.67;32.32;44.72;;
66450;Laerm;56829;52.274;4.770;2022-12-22T01:49:57;34.15;31.67;44.04;;
66450;Laerm;56829;52.274;4.770;2022-12-22T01:50:27;50.29;32.94;62.29;;
66450;Laerm;56829;52.274;4.770;2022-12-22T01:50:59;35.36;30.89;42.63;;
66450;Laerm;56829;52.274;4.770;2022-12-22T01:51:28;33.60;31.33;38.05;;
66450;Laerm;56829;52.274;4.770;2022-12-22T01:51:57;33.31;31.52;37.33;;
66450;Laerm;56829;52.274;4.770;2022-12-22T01:52:29;34.64;32.36;42.82;;
66450;Laerm;56829;52.274;4.770;2022-12-22T01:52:59;33.73;31.35;38.32;;
66450;Laerm;56829;52.274;4.770;2022-12-22T01:53:29;33.07;31.36;42.77;;
66450;Laerm;56829;52.274;4.770;2022-12-22T01:53:59;33.34;31.58;38.01;;
66450;Laerm;56829;52.274;4.770;2022-12-22T01:54:28;33.83;31.40;46.85;;
66450;Laerm;56829;52.274;4.770;2022-12-22T01:54:58;34.45;31.75;49.18;;
66450;Laerm;56829;52.274;4.770;2022-12-22T01:55:29;33.93;31.30;46.24;;
66450;Laerm;56829;52.274;4.770;2022-12-22T01:55:57;33.33;30.96;37.42;;
66450;Laerm;56829;52.274;4.770;2022-12-22T01:56:27;33.04;31.37;38.94;;
66450;Laerm;56829;52.274;4.770;2022-12-22T01:56:56;33.26;31.02;36.91;;
66450;Laerm;56829;52.274;4.770;2022-12-22T01:57:25;33.88;31.84;41.24;;
66450;Laerm;56829;52.274;4.770;2022-12-22T01:57:54;36.28;31.47;53.37;;
66450;Laerm;56829;52.274;4.770;2022-12-22T01:58:25;33.07;31.32;40.09;;
66450;Laerm;56829;52.274;4.770;2022-12-22T01:58:56;34.08;31.59;40.61;;
66450;Laerm;56829;52.274;4.770;2022-12-22T01:59:26;34.36;31.67;42.96;;
66450;Laerm;56829;52.274;4.770;2022-12-22T01:59:55;36.12;31.56;43.84;;
66450;Laerm;56829;52.274;4.770;2022-12-22T02:00:23;42.00;34.39;51.81;;
66450;Laerm;56829;52.274;4.770;2022-12-22T02:00:52;37.28;32.00;49.28;;
66450;Laerm;56829;52.274;4.770;2022-12-22T02:01:21;32.87;31.07;35.83;;
66450;Laerm;56829;52.274;4.770;2022-12-22T02:01:50;33.10;31.36;38.56;;
66450;Laerm;56829;52.274;4.770;2022-12-22T02:02:19;32.91;30.61;39.98;;
66450;Laerm;56829;52.274;4.770;2022-12-22T02:02:49;32.48;30.59;38.02;;
66450;Laerm;56829;52.274;4.770;2022-12-22T02:03:19;32.73;30.83;40.80;;
66450;Laerm;56829;52.274;4.770;2022-12-22T02:03:48;33.07;30.65;38.48;;
66450;Laerm;56829;52.274;4.770;2022-12-22T02:04:17;33.02;30.65;41.20;;
66450;Laerm;56829;52.274;4.770;2022-12-22T02:04:47;33.68;31.53;40.54;;
66450;Laerm;56829;52.274;4.770;2022-12-22T02:05:17;33.36;31.03;41.66;;
66450;Laerm;56829;52.274;4.770;2022-12-22T02:06:47;49.63;31.37;65.60;;
66450;Laerm;56829;52.274;4.770;2022-12-22T02:07:26;38.61;31.57;50.48;;
66450;Laerm;56829;52.274;4.770;2022-12-22T02:08:08;33.98;31.42;49.93;;
66450;Laerm;56829;52.274;4.770;2022-12-22T02:08:41;33.73;31.34;46.09;;
66450;Laerm;56829;52.274;4.770;2022-12-22T02:10:15;35.85;31.26;61.10;;
66450;Laerm;56829;52.274;4.770;2022-12-22T02:11:25;33.12;31.27;36.98;;
66450;Laerm;56829;52.274;4.770;2022-12-22T02:12:04;33.22;30.63;39.84;;
66450;Laerm;56829;52.274;4.770;2022-12-22T02:13:12;32.15;30.40;37.22;;
66450;Laerm;56829;52.274;4.770;2022-12-22T02:15:35;33.21;31.08;48.18;;
66450;Laerm;56829;52.274;4.770;2022-12-22T02:16:15;33.82;30.77;44.85;;
66450;Laerm;56829;52.274;4.770;2022-12-22T02:16:55;37.98;31.98;51.58;;
66450;Laerm;56829;52.274;4.770;2022-12-22T02:17:28;37.00;32.36;46.36;;
66450;Laerm;56829;52.274;4.770;2022-12-22T02:18:44;33.82;31.64;44.84;;
66450;Laerm;56829;52.274;4.770;2022-12-22T02:20:52;35.52;32.03;46.17;;
66450;Laerm;56829;52.274;4.770;2022-12-22T02:21:21;34.09;31.70;37.20;;
66450;Laerm;56829;52.274;4.770;2022-12-22T02:22:16;34.78;31.60;41.09;;
66450;Laerm;56829;52.274;4.770;2022-12-22T02:23:27;50.19;33.12;61.92;;
66450;Laerm;56829;52.274;4.770;2022-12-22T02:24:08;33.95;31.45;46.56;;
66450;Laerm;56829;52.274;4.770;2022-12-22T02:24:42;34.32;31.91;40.45;;
66450;Laerm;56829;52.274;4.770;2022-12-22T02:25:14;35.46;31.63;40.55;;
66450;Laerm;56829;52.274;4.770;2022-12-22T02:26:40;34.62;32.03;48.89;;
66450;Laerm;56829;52.274;4.770;2022-12-22T02:27:09;34.08;31.81;39.61;;
66450;Laerm;56829;52.274;4.770;2022-12-22T02:27:39;33.93;31.71;39.42;;
66450;Laerm;56829;52.274;4.770;2022-12-22T02:28:09;33.67;31.74;43.77;;
66450;Laerm;56829;52.274;4.770;2022-12-22T02:28:40;33.53;31.65;38.37;;
66450;Laerm;56829;52.274;4.770;2022-12-22T02:29:09;33.44;30.61;39.06;;
66450;Laerm;56829;52.274;4.770;2022-12-22T02:29:46;34.17;31.41;40.14;;
66450;Laerm;56829;52.274;4.770;2022-12-22T02:30:17;35.15;31.39;40.10;;
66450;Laerm;56829;52.274;4.770;2022-12-22T02:30:46;34.83;31.83;40.30;;
66450;Laerm;56829;52.274;4.770;2022-12-22T02:31:16;52.96;33.88;66.02;;
66450;Laerm;56829;52.274;4.770;2022-12-22T02:31:45;37.42;34.40;45.80;;
66450;Laerm;56829;52.274;4.770;2022-12-22T02:32:14;53.36;35.96;67.03;;
66450;Laerm;56829;52.274;4.770;2022-12-22T02:32:44;35.54;32.17;44.03;;
66450;Laerm;56829;52.274;4.770;2022-12-22T02:33:13;36.63;33.46;42.94;;
66450;Laerm;56829;52.274;4.770;2022-12-22T02:33:42;51.81;33.15;64.33;;
66450;Laerm;56829;52.274;4.770;2022-12-22T02:34:13;34.69;32.35;42.88;;
66450;Laerm;56829;52.274;4.770;2022-12-22T02:34:42;35.32;32.69;42.95;;
66450;Laerm;56829;52.274;4.770;2022-12-22T02:35:12;33.75;31.54;39.13;;
66450;Laerm;56829;52.274;4.770;2022-12-22T02:36:18;33.68;31.54;43.77;;
66450;Laerm;56829;52.274;4.770;2022-12-22T02:37:45;33.96;31.32;47.83;;
66450;Laerm;56829;52.274;4.770;2022-12-22T02:39:30;35.98;33.30;41.10;;
66450;Laerm;56829;52.274;4.770;2022-12-22T02:40:10;35.29;32.69;42.67;;
66450;Laerm;56829;52.274;4.770;2022-12-22T02:40:57;45.49;31.86;57.63;;
66450;Laerm;56829;52.274;4.770;2022-12-22T02:42:49;34.39;32.50;37.76;;
66450;Laerm;56829;52.274;4.770;2022-12-22T02:43:28;49.36;32.77;63.71;;
66450;Laerm;56829;52.274;4.770;2022-12-22T02:44:47;37.02;32.87;46.64;;
66450;Laerm;56829;52.274;4.770;2022-12-22T02:46:04;43.42;32.92;56.07;;
66450;Laerm;56829;52.274;4.770;2022-12-22T02:46:19;48.62;33.04;63.51;;
66450;Laerm;56829;52.274;4.770;2022-12-22T02:46:58;52.37;33.33;66.99;;
66450;Laerm;56829;52.274;4.770;2022-12-22T02:47:29;38.59;33.72;48.39;;
66450;Laerm;56829;52.274;4.770;2022-12-22T02:49:09;34.99;32.72;46.18;;
66450;Laerm;56829;52.274;4.770;2022-12-22T02:49:49;34.91;32.67;40.37;;
66450;Laerm;56829;52.274;4.770;2022-12-22T02:50:23;36.43;33.86;41.92;;
66450;Laerm;56829;52.274;4.770;2022-12-22T02:50:59;51.34;34.24;64.33;;
66450;Laerm;56829;52.274;4.770;2022-12-22T02:51:32;34.63;32.11;42.96;;
66450;Laerm;56829;52.274;4.770;2022-12-22T02:52:06;33.77;31.75;36.49;;
66450;Laerm;56829;52.274;4.770;2022-12-22T02:52:37;40.42;31.86;51.59;;
66450;Laerm;56829;52.274;4.770;2022-12-22T02:53:09;49.28;32.34;61.84;;
66450;Laerm;56829;52.274;4.770;2022-12-22T02:53:39;34.83;32.25;47.17;;
66450;Laerm;56829;52.274;4.770;2022-12-22T02:54:08;34.60;31.80;44.57;;
66450;Laerm;56829;52.274;4.770;2022-12-22T02:54:38;36.89;33.09;45.35;;
66450;Laerm;56829;52.274;4.770;2022-12-22T02:55:07;37.45;33.28;44.10;;
66450;Laerm;56829;52.274;4.770;2022-12-22T02:55:36;36.65;33.08;47.56;;
66450;Laerm;56829;52.274;4.770;2022-12-22T02:56:05;35.36;32.81;40.01;;
66450;Laerm;56829;52.274;4.770;2022-12-22T02:56:34;34.26;31.98;40.06;;
66450;Laerm;56829;52.274;4.770;2022-12-22T02:57:06;34.94;32.07;42.21;;
66450;Laerm;56829;52.274;4.770;2022-12-22T02:57:35;34.68;32.24;45.34;;
66450;Laerm;56829;52.274;4.770;2022-12-22T02:58:04;50.81;32.43;62.52;;
66450;Laerm;56829;52.274;4.770;2022-12-22T02:58:33;37.61;32.29;46.73;;
66450;Laerm;56829;52.274;4.770;2022-12-22T02:59:02;33.44;31.53;38.54;;
66450;Laerm;56829;52.274;4.770;2022-12-22T02:59:31;34.17;31.85;51.05;;
66450;Laerm;56829;52.274;4.770;2022-12-22T02:59:59;34.59;32.21;39.15;;
66450;Laerm;56829;52.274;4.770;2022-12-22T03:00:28;34.20;31.82;39.73;;
66450;Laerm;56829;52.274;4.770;2022-12-22T03:00:57;34.82;32.64;40.03;;
66450;Laerm;56829;52.274;4.770;2022-12-22T03:01:26;34.74;32.36;50.55;;
66450;Laerm;56829;52.274;4.770;2022-12-22T03:01:55;34.40;32.02;39.11;;
66450;Laerm;56829;52.274;4.770;2022-12-22T03:02:24;51.24;32.75;64.89;;
66450;Laerm;56829;52.274;4.770;2022-12-22T03:02:53;45.86;33.43;58.67;;
66450;Laerm;56829;52.274;4.770;2022-12-22T03:03:21;35.48;32.95;39.87;;
66450;Laerm;56829;52.274;4.770;2022-12-22T03:03:50;35.68;33.33;51.90;;
66450;Laerm;56829;52.274;4.770;2022-12-22T03:04:19;34.87;32.83;42.52;;
66450;Laerm;56829;52.274;4.770;2022-12-22T03:04:48;34.97;32.29;38.11;;
66450;Laerm;56829;52.274;4.770;2022-12-22T03:05:16;35.13;32.92;43.77;;
66450;Laerm;56829;52.274;4.770;2022-12-22T03:05:45;35.27;33.25;49.73;;
66450;Laerm;56829;52.274;4.770;2022-12-22T03:06:14;34.89;32.89;42.46;;